Time;durP1;ratioP1;P1;durP2;ratioP2;P2;SDS_P1;SDS_P2;PMS_P1;PMS_P2;Temp;Humidity;BMP_temperature;BMP_pressure;BME280_temperature;BME280_humidity;BME280_pressure;Samples;Min_cycle;Max_cycle;Signal;HPM_P1;HPM_P2
2023/03/08 00:01:37;;;;;;;;;;;;;;;;;;5006455;28;20006;-70
2023/03/08 00:04:02;;;;;;;;;;;;;;;;;;5020087;28;20024;-69
2023/03/08 00:06:30;;;;;;;;;;;;;;;;;;5003723;28;20454;-68
2023/03/08 00:08:57;;;;;;;;;;;;;;;;;;5024436;28;19924;-69
2023/03/08 00:11:23;;;;;;;;;;;;;;;;;;5023019;28;19920;-69
2023/03/08 00:13:51;;;;;;;;;;;;;;;;;;5007031;28;19927;-70
2023/03/08 00:16:16;;;;;;;;;;;;;;;;;;5025859;28;19916;-68
2023/03/08 00:18:41;;;;;;;;;;;;;;;;;;5005702;28;19920;-68
2023/03/08 00:21:09;;;;;;;;;;;;;;;;;;5022256;28;20135;-69
2023/03/08 00:23:34;;;;;;;;;;;;;;;;;;5026694;28;19916;-69
2023/03/08 00:25:59;;;;;;;;;;;;;;;;;;5012908;28;19940;-69
2023/03/08 00:28:25;;;;;;;;;;;;;;;;;;5027295;28;19975;-70
2023/03/08 00:30:52;;;;;;;;;;;;;;;;;;5028662;28;20039;-70
2023/03/08 00:36:34;;;;;;;;;;;;;;;;;;5029486;28;19927;-70
2023/03/08 00:39:01;;;;;;;;;;;;;;;;;;5027667;28;19960;-70
2023/03/08 00:41:29;;;;;;;;;;;;;;;;;;5009908;28;20080;-69
2023/03/08 00:43:54;;;;;;;;;;;;;;;;;;5043013;28;20066;-70
2023/03/08 00:46:20;;;;;;;;;;;;;;;;;;5027583;28;20593;-70
2023/03/08 00:48:45;;;;;;;;;;;;;;;;;;5010904;28;19924;-69
2023/03/08 00:51:10;;;;;;;;;;;;;;;;;;5027056;28;19921;-69
2023/03/08 00:53:38;;;;;;;;;;;;;;;;;;5008526;28;19943;-69
2023/03/08 00:56:06;;;;;;;;;;;;;;;;;;5025352;28;20244;-70
2023/03/08 00:58:32;;;;;;;;;;;;;;;;;;5008998;28;19924;-69
2023/03/08 01:00:57;;;;;;;;;;;;;;;;;;5009326;28;19920;-70
2023/03/08 01:03:22;;;;;;;;;;;;;;;;;;5004300;28;19921;-70
2023/03/08 01:05:47;;;;;;;;;;;;;;;;;;5029224;28;19994;-70
2023/03/08 01:08:15;;;;;;;;;;;;;;;;;;5008027;28;20127;-70
2023/03/08 01:10:43;;;;;;;;;;;;;;;;;;5011363;28;19917;-70
2023/03/08 01:13:09;;;;;;;;;;;;;;;;;;5028838;28;19932;-70
2023/03/08 01:15:34;;;;;;;;;;;;;;;;;;5021771;28;19932;-70
2023/03/08 01:18:04;;;;;;;;;;;;;;;;;;5026853;28;19921;-70
2023/03/08 01:20:33;;;;;;;;;;;;;;;;;;5023297;28;20009;-70
2023/03/08 01:22:59;;;;;;;;;;;;;;;;;;5028031;28;20129;-70
2023/03/08 01:25:27;;;;;;;;;;;;;;;;;;5023048;28;20007;-70
2023/03/08 01:27:54;;;;;;;;;;;;;;;;;;5023330;28;19920;-70
2023/03/08 01:30:20;;;;;;;;;;;;;;;;;;5006408;28;19943;-69
2023/03/08 01:32:45;;;;;;;;;;;;;;;;;;5021048;28;19925;-70
2023/03/08 01:35:10;;;;;;;;;;;;;;;;;;5008165;28;19916;-70
2023/03/08 01:38:00;;;;;;;;;;;;;;;;;;5026644;28;19990;-70
2023/03/08 01:40:25;;;;;;;;;;;;;;;;;;5022129;28;20106;-70
2023/03/08 01:42:53;;;;;;;;;;;;;;;;;;5006150;28;19921;-70
2023/03/08 01:45:18;;;;;;;;;;;;;;;;;;5017324;28;19991;-69
2023/03/08 01:47:46;;;;;;;;;;;;;;;;;;5021916;28;20426;-69
2023/03/08 01:53:31;;;;;;;;;;;;;;;;;;5026666;28;19931;-70
2023/03/08 01:55:58;;;;;;;;;;;;;;;;;;5024768;28;20015;-68
2023/03/08 01:58:24;;;;;;;;;;;;;;;;;;5005437;28;19917;-68
2023/03/08 02:00:49;;;;;;;;;;;;;;;;;;5007863;28;19943;-68
2023/03/08 02:03:17;;;;;;;;;;;;;;;;;;5006147;28;19995;-68
2023/03/08 02:05:45;;;;;;;;;;;;;;;;;;5024551;28;20008;-69
2023/03/08 02:08:10;;;;;;;;;;;;;;;;;;5027144;28;19966;-68
2023/03/08 02:10:35;;;;;;;;;;;;;;;;;;5007252;28;19948;-68
2023/03/08 02:13:01;;;;;;;;;;;;;;;;;;5023974;28;21730;-67
2023/03/08 02:15:41;;;;;;;;;;;;;;;;;;5023674;28;20441;-68
2023/03/08 02:18:06;;;;;;;;;;;;;;;;;;5023046;28;19921;-67
2023/03/08 02:20:37;;;;;;;;;;;;;;;;;;5025715;28;20006;-68
2023/03/08 02:23:05;;;;;;;;;;;;;;;;;;5004788;28;19932;-67
2023/03/08 02:25:33;;;;;;;;;;;;;;;;;;5025116;28;19955;-67
2023/03/08 02:28:02;;;;;;;;;;;;;;;;;;5024343;28;19963;-67
2023/03/08 02:30:27;;;;;;;;;;;;;;;;;;5024299;28;19920;-67
2023/03/08 02:32:52;;;;;;;;;;;;;;;;;;5025211;28;19974;-66
2023/03/08 02:35:19;;;;;;;;;;;;;;;;;;5024184;28;19938;-67
2023/03/08 02:37:44;;;;;;;;;;;;;;;;;;5005211;28;20320;-67
2023/03/08 02:40:12;;;;;;;;;;;;;;;;;;5006399;28;19917;-67
2023/03/08 02:42:40;;;;;;;;;;;;;;;;;;5007251;28;19923;-66
2023/03/08 02:45:11;;;;;;;;;;;;;;;;;;5023119;28;20064;-66
2023/03/08 02:47:36;;;;;;;;;;;;;;;;;;5025008;28;19950;-68
2023/03/08 02:50:06;;;;;;;;;;;;;;;;;;5024766;28;19916;-68
2023/03/08 02:52:34;;;;;;;;;;;;;;;;;;5022015;28;19942;-68
2023/03/08 02:58:16;;;;;;;;;;;;;;;;;;5026150;28;19949;-67
2023/03/08 03:00:41;;;;;;;;;;;;;;;;;;5008204;28;19920;-67
2023/03/08 03:03:10;;;;;;;;;;;;;;;;;;5023188;28;20468;-67
2023/03/08 03:05:37;;;;;;;;;;;;;;;;;;5017060;28;19921;-66
2023/03/08 03:08:06;;;;;;;;;;;;;;;;;;5028459;28;19925;-66
2023/03/08 03:10:34;;;;;;;;;;;;;;;;;;5023180;28;20887;-67
2023/03/08 03:12:59;;;;;;;;;;;;;;;;;;5024214;28;19928;-66
2023/03/08 03:15:29;;;;;;;;;;;;;;;;;;5024722;28;20651;-65
2023/03/08 03:17:55;;;;;;;;;;;;;;;;;;5024417;28;19932;-66
2023/03/08 03:20:20;;;;;;;;;;;;;;;;;;5024430;28;20217;-66
2023/03/08 03:22:48;;;;;;;;;;;;;;;;;;5015611;28;20006;-66
2023/03/08 03:25:13;;;;;;;;;;;;;;;;;;5005045;28;20016;-65
2023/03/08 03:27:38;;;;;;;;;;;;;;;;;;5007628;28;20020;-65
2023/03/08 03:30:04;;;;;;;;;;;;;;;;;;5003879;28;19927;-65
2023/03/08 03:32:32;;;;;;;;;;;;;;;;;;5019659;28;19924;-66
2023/03/08 03:34:57;;;;;;;;;;;;;;;;;;5025544;28;19930;-66
2023/03/08 03:37:25;;;;;;;;;;;;;;;;;;5006683;28;19916;-65
2023/03/08 03:39:50;;;;;;;;;;;;;;;;;;5021783;28;20634;-66
2023/03/08 03:42:20;;;;;;;;;;;;;;;;;;5007843;28;20510;-65
2023/03/08 03:44:49;;;;;;;;;;;;;;;;;;5025380;28;20366;-65
2023/03/08 03:47:15;;;;;;;;;;;;;;;;;;5006573;28;19921;-66
2023/03/08 03:49:43;;;;;;;;;;;;;;;;;;5020965;28;21387;-64
2023/03/08 03:52:10;;;;;;;;;;;;;;;;;;5007026;28;20136;-65
2023/03/08 03:54:36;;;;;;;;;;;;;;;;;;5021314;28;20278;-66
2023/03/08 03:57:03;;;;;;;;;;;;;;;;;;5023958;28;20066;-66
2023/03/08 03:59:29;;;;;;;;;;;;;;;;;;5020087;28;20362;-66
2023/03/08 04:01:54;;;;;;;;;;;;;;;;;;5022903;28;19916;-66
2023/03/08 04:04:22;;;;;;;;;;;;;;;;;;5024699;28;19928;-65
2023/03/08 04:06:47;;;;;;;;;;;;;;;;;;5005949;28;19921;-66
2023/03/08 04:12:31;;;;;;;;;;;;;;;;;;5024490;28;20378;-66
2023/03/08 04:14:56;;;;;;;;;;;;;;;;;;5024916;28;21754;-66
2023/03/08 04:17:22;;;;;;;;;;;;;;;;;;5023130;28;19931;-66
2023/03/08 04:19:47;;;;;;;;;;;;;;;;;;5018534;28;20123;-66
2023/03/08 04:22:15;;;;;;;;;;;;;;;;;;5023194;28;20047;-66
2023/03/08 04:24:40;;;;;;;;;;;;;;;;;;5005179;28;19942;-66
2023/03/08 04:27:08;;;;;;;;;;;;;;;;;;5020938;28;20200;-65
2023/03/08 04:29:36;;;;;;;;;;;;;;;;;;5007564;28;20376;-67
2023/03/08 04:32:03;;;;;;;;;;;;;;;;;;5002904;28;19924;-65
2023/03/08 04:34:28;;;;;;;;;;;;;;;;;;5007564;28;19921;-65
2023/03/08 04:36:57;;;;;;;;;;;;;;;;;;5021207;28;20027;-66
2023/03/08 04:39:22;;;;;;;;;;;;;;;;;;5021218;28;19933;-65
2023/03/08 04:41:47;;;;;;;;;;;;;;;;;;5005141;28;20192;-65
2023/03/08 04:44:12;;;;;;;;;;;;;;;;;;5027152;28;20676;-65
2023/03/08 04:46:38;;;;;;;;;;;;;;;;;;5026374;28;19917;-65
2023/03/08 04:49:03;;;;;;;;;;;;;;;;;;5034951;28;19928;-64
2023/03/08 04:51:31;;;;;;;;;;;;;;;;;;5023193;28;20732;-65
2023/03/08 04:53:56;;;;;;;;;;;;;;;;;;5004576;28;19917;-65
2023/03/08 04:56:24;;;;;;;;;;;;;;;;;;5003147;28;20123;-65
2023/03/08 04:58:52;;;;;;;;;;;;;;;;;;5020890;28;19999;-65
2023/03/08 05:01:17;;;;;;;;;;;;;;;;;;5024323;28;20360;-65
2023/03/08 05:03:43;;;;;;;;;;;;;;;;;;5007437;28;20130;-65
2023/03/08 05:06:08;;;;;;;;;;;;;;;;;;5004905;28;20179;-65
2023/03/08 05:08:33;;;;;;;;;;;;;;;;;;5028573;28;19982;-65
2023/03/08 05:10:59;;;;;;;;;;;;;;;;;;5026237;28;19990;-63
2023/03/08 05:13:24;;;;;;;;;;;;;;;;;;5024187;28;19929;-65
2023/03/08 05:15:52;;;;;;;;;;;;;;;;;;5024375;28;20014;-65
2023/03/08 05:18:17;;;;;;;;;;;;;;;;;;5021551;28;20373;-66
2023/03/08 05:20:45;;;;;;;;;;;;;;;;;;5005449;28;20047;-65
2023/03/08 05:23:16;;;;;;;;;;;;;;;;;;5038238;28;19920;-66
2023/03/08 05:25:44;;;;;;;;;;;;;;;;;;5023829;28;19969;-65
2023/03/08 05:28:14;;;;;;;;;;;;;;;;;;5024044;28;19928;-66
2023/03/08 05:30:42;;;;;;;;;;;;;;;;;;5023228;28;19932;-66
2023/03/08 05:33:10;;;;;;;;;;;;;;;;;;5005850;28;19967;-66
2023/03/08 05:35:41;;;;;;;;;;;;;;;;;;5025165;28;19927;-65
2023/03/08 05:38:06;;;;;;;;;;;;;;;;;;5024936;28;20008;-66
2023/03/08 05:40:34;;;;;;;;;;;;;;;;;;5007232;28;19927;-65
2023/03/08 05:43:00;;;;;;;;;;;;;;;;;;5023954;28;19921;-65
2023/03/08 05:45:28;;;;;;;;;;;;;;;;;;5028159;28;20572;-65
2023/03/08 05:47:53;;;;;;;;;;;;;;;;;;5028454;28;19916;-65
2023/03/08 05:50:21;;;;;;;;;;;;;;;;;;5018839;28;20705;-66
2023/03/08 05:52:46;;;;;;;;;;;;;;;;;;5017380;28;19928;-65
2023/03/08 05:55:12;;;;;;;;;;;;;;;;;;5024874;28;20231;-65
2023/03/08 06:00:31;;;;;;;;;;;;;;;;;;5026660;28;19921;-64
2023/03/08 06:02:58;;;;;;;;;;;;;;;;;;5021584;28;19927;-65
2023/03/08 06:05:23;;;;;;;;;;;;;;;;;;5018453;28;20537;-65
2023/03/08 06:07:48;;;;;;;;;;;;;;;;;;5021170;28;19920;-64
2023/03/08 06:10:14;;;;;;;;;;;;;;;;;;5019690;28;20027;-64
2023/03/08 06:12:39;;;;;;;;;;;;;;;;;;5036816;28;19925;-65
2023/03/08 06:15:04;;;;;;;;;;;;;;;;;;5020206;28;19979;-63
2023/03/08 06:17:29;;;;;;;;;;;;;;;;;;5022824;28;19917;-65
2023/03/08 06:19:55;;;;;;;;;;;;;;;;;;5020792;28;19920;-63
2023/03/08 06:22:23;;;;;;;;;;;;;;;;;;5017656;28;19968;-64
2023/03/08 06:24:48;;;;;;;;;;;;;;;;;;5023998;28;19917;-63
2023/03/08 06:27:13;;;;;;;;;;;;;;;;;;5028693;28;19920;-64
2023/03/08 06:29:39;;;;;;;;;;;;;;;;;;5025335;28;20356;-64
2023/03/08 06:32:09;;;;;;;;;;;;;;;;;;5014618;28;19924;-64
2023/03/08 06:34:35;;;;;;;;;;;;;;;;;;5005591;28;19927;-64
2023/03/08 06:37:00;;;;;;;;;;;;;;;;;;5009830;28;20070;-63
2023/03/08 06:42:42;;;;;;;;;;;;;;;;;;5026684;28;20005;-64
2023/03/08 06:45:07;;;;;;;;;;;;;;;;;;5031146;28;20382;-65
2023/03/08 06:47:35;;;;;;;;;;;;;;;;;;5026023;28;20007;-65
2023/03/08 06:50:03;;;;;;;;;;;;;;;;;;5022266;28;19921;-65
2023/03/08 06:52:36;;;;;;;;;;;;;;;;;;5006178;28;19960;-64
2023/03/08 06:55:03;;;;;;;;;;;;;;;;;;5022834;28;19926;-65
2023/03/08 06:57:34;;;;;;;;;;;;;;;;;;5025838;28;20463;-64
2023/03/08 07:00:00;;;;;;;;;;;;;;;;;;5027038;28;19921;-63
2023/03/08 07:02:30;;;;;;;;;;;;;;;;;;5022828;28;19925;-64
2023/03/08 07:04:56;;;;;;;;;;;;;;;;;;5026364;28;19920;-64
2023/03/08 07:07:21;;;;;;;;;;;;;;;;;;5025778;28;19920;-64
2023/03/08 07:09:46;;;;;;;;;;;;;;;;;;5024707;28;19916;-64
2023/03/08 07:12:14;;;;;;;;;;;;;;;;;;5026179;28;19928;-64
2023/03/08 07:14:39;;;;;;;;;;;;;;;;;;5023911;28;20573;-64
2023/03/08 07:17:06;;;;;;;;;;;;;;;;;;5006520;28;19959;-63
2023/03/08 07:19:32;;;;;;;;;;;;;;;;;;5008479;28;20028;-64
2023/03/08 07:21:59;;;;;;;;;;;;;;;;;;5022936;28;20082;-64
2023/03/08 07:24:24;;;;;;;;;;;;;;;;;;5022427;28;19932;-64
2023/03/08 07:26:50;;;;;;;;;;;;;;;;;;5006766;28;19916;-65
2023/03/08 07:29:17;;;;;;;;;;;;;;;;;;5007159;28;21351;-64
2023/03/08 07:31:43;;;;;;;;;;;;;;;;;;5027110;28;19920;-64
2023/03/08 07:34:13;;;;;;;;;;;;;;;;;;5023831;28;19967;-65
2023/03/08 07:36:39;;;;;;;;;;;;;;;;;;5006319;28;19935;-64
2023/03/08 07:39:04;;;;;;;;;;;;;;;;;;5007120;28;20375;-64
2023/03/08 07:41:33;;;;;;;;;;;;;;;;;;5002257;28;19920;-64
2023/03/08 07:43:58;;;;;;;;;;;;;;;;;;5024472;28;20123;-65
2023/03/08 07:46:27;;;;;;;;;;;;;;;;;;5007900;28;19921;-65
2023/03/08 07:48:57;;;;;;;;;;;;;;;;;;5005785;28;20031;-64
2023/03/08 07:51:25;;;;;;;;;;;;;;;;;;5007670;28;19927;-63
2023/03/08 07:53:53;;;;;;;;;;;;;;;;;;5022106;28;20027;-64
2023/03/08 07:56:18;;;;;;;;;;;;;;;;;;5007871;28;19920;-63
2023/03/08 07:58:46;;;;;;;;;;;;;;;;;;5026831;28;19916;-64
2023/03/08 08:01:12;;;;;;;;;;;;;;;;;;5022242;28;20352;-63
2023/03/08 08:03:39;;;;;;;;;;;;;;;;;;5003599;28;19916;-63
2023/03/08 08:06:07;;;;;;;;;;;;;;;;;;5022556;28;20332;-63
2023/03/08 08:08:32;;;;;;;;;;;;;;;;;;5025373;28;20054;-63
2023/03/08 08:10:58;;;;;;;;;;;;;;;;;;5025021;28;19921;-64
2023/03/08 08:13:26;;;;;;;;;;;;;;;;;;5023613;28;20170;-63
2023/03/08 08:15:53;;;;;;;;;;;;;;;;;;5006695;28;19917;-63
2023/03/08 08:18:19;;;;;;;;;;;;;;;;;;5005147;28;19921;-64
2023/03/08 08:20:44;;;;;;;;;;;;;;;;;;5025616;28;20387;-63
2023/03/08 08:23:12;;;;;;;;;;;;;;;;;;5021574;28;20636;-63
2023/03/08 08:25:40;;;;;;;;;;;;;;;;;;5006228;28;19917;-63
2023/03/08 08:28:07;;;;;;;;;;;;;;;;;;5020546;28;20047;-63
2023/03/08 08:30:33;;;;;;;;;;;;;;;;;;5023103;28;19928;-64
2023/03/08 08:33:02;;;;;;;;;;;;;;;;;;5021727;28;19921;-64
2023/03/08 08:35:29;;;;;;;;;;;;;;;;;;5024018;28;20387;-64
2023/03/08 08:37:57;;;;;;;;;;;;;;;;;;5023574;28;19928;-64
2023/03/08 08:40:25;;;;;;;;;;;;;;;;;;5022154;28;19927;-64
2023/03/08 08:42:53;;;;;;;;;;;;;;;;;;5028533;28;19920;-65
2023/03/08 08:45:18;;;;;;;;;;;;;;;;;;5009757;28;19921;-64
2023/03/08 08:47:46;;;;;;;;;;;;;;;;;;5009932;28;20287;-64
2023/03/08 08:50:11;;;;;;;;;;;;;;;;;;5023901;28;21196;-65
2023/03/08 08:52:36;;;;;;;;;;;;;;;;;;5029223;28;19963;-65
2023/03/08 08:55:02;;;;;;;;;;;;;;;;;;5028778;28;19923;-64
2023/03/08 08:57:33;;;;;;;;;;;;;;;;;;5025650;28;19916;-64
2023/03/08 08:59:58;;;;;;;;;;;;;;;;;;5026905;28;19921;-64
2023/03/08 09:02:24;;;;;;;;;;;;;;;;;;5026133;28;19916;-64
2023/03/08 09:04:49;;;;;;;;;;;;;;;;;;5027374;28;19921;-64
2023/03/08 09:07:14;;;;;;;;;;;;;;;;;;5028028;28;20537;-64
2023/03/08 09:09:45;;;;;;;;;;;;;;;;;;5027044;28;19917;-64
2023/03/08 09:12:12;;;;;;;;;;;;;;;;;;5041037;28;19924;-63
2023/03/08 09:14:40;;;;;;;;;;;;;;;;;;5009271;28;19975;-62
2023/03/08 09:17:08;;;;;;;;;;;;;;;;;;5025251;28;19959;-63
2023/03/08 09:19:36;;;;;;;;;;;;;;;;;;5008674;28;19916;-63
2023/03/08 09:22:01;;;;;;;;;;;;;;;;;;5027728;28;20027;-64
2023/03/08 09:24:26;;;;;;;;;;;;;;;;;;5026027;28;20253;-64
2023/03/08 09:26:52;;;;;;;;;;;;;;;;;;5010726;28;20334;-63
2023/03/08 09:29:19;;;;;;;;;;;;;;;;;;5029317;28;19917;-64
2023/03/08 09:31:47;;;;;;;;;;;;;;;;;;5042688;28;19951;-64
2023/03/08 09:34:14;;;;;;;;;;;;;;;;;;5007592;28;19917;-65
2023/03/08 09:36:42;;;;;;;;;;;;;;;;;;5007185;28;20334;-65
2023/03/08 09:39:10;;;;;;;;;;;;;;;;;;5028361;28;19916;-66
2023/03/08 09:41:37;;;;;;;;;;;;;;;;;;5007325;28;20150;-66
2023/03/08 09:44:02;;;;;;;;;;;;;;;;;;5009914;28;19948;-67
2023/03/08 09:46:33;;;;;;;;;;;;;;;;;;5028021;28;20502;-67
2023/03/08 09:48:59;;;;;;;;;;;;;;;;;;5004411;28;19952;-67
2023/03/08 09:51:28;;;;;;;;;;;;;;;;;;5010277;28;20011;-67
2023/03/08 09:53:53;;;;;;;;;;;;;;;;;;5023953;28;21398;-68
2023/03/08 09:56:23;;;;;;;;;;;;;;;;;;5005479;28;20011;-67
2023/03/08 09:58:48;;;;;;;;;;;;;;;;;;5008934;28;19948;-68
2023/03/08 10:01:13;;;;;;;;;;;;;;;;;;5026449;28;19916;-68
2023/03/08 10:03:41;;;;;;;;;;;;;;;;;;5024381;28;19924;-70
2023/03/08 10:06:07;;;;;;;;;;;;;;;;;;5027579;28;19924;-70
2023/03/08 10:08:32;;;;;;;;;;;;;;;;;;5023418;28;20160;-69
2023/03/08 10:11:00;;;;;;;;;;;;;;;;;;5009737;28;19928;-71
2023/03/08 10:13:26;;;;;;;;;;;;;;;;;;5008462;28;19936;-71
2023/03/08 10:15:53;;;;;;;;;;;;;;;;;;5025644;28;20486;-71
2023/03/08 10:18:19;;;;;;;;;;;;;;;;;;5013633;28;20084;-72
2023/03/08 10:20:47;;;;;;;;;;;;;;;;;;5032879;28;19924;-73
2023/03/08 10:23:12;;;;;;;;;;;;;;;;;;5036877;28;19912;-73
2023/03/08 10:25:38;;;;;;;;;;;;;;;;;;5029209;28;19921;-75
2023/03/08 10:28:03;;;;;;;;;;;;;;;;;;5029228;28;19917;-75
2023/03/08 10:30:29;;;;;;;;;;;;;;;;;;5026251;28;20433;-75
2023/03/08 10:32:55;;;;;;;;;;;;;;;;;;5044952;28;19960;-75
2023/03/08 10:35:20;;;;;;;;;;;;;;;;;;5029955;28;20065;-77
2023/03/08 10:37:46;;;;;;;;;;;;;;;;;;5023241;28;19921;-77
2023/03/08 10:40:12;;;;;;;;;;;;;;;;;;5031296;28;19974;-76
2023/03/08 10:42:40;;;;;;;;;;;;;;;;;;5028382;28;20039;-76
2023/03/08 10:45:08;;;;;;;;;;;;;;;;;;5031162;28;19928;-77
2023/03/08 10:47:34;;;;;;;;;;;;;;;;;;5026615;28;19988;-76
2023/03/08 10:49:59;;;;;;;;;;;;;;;;;;5011846;28;20504;-76
2023/03/08 10:52:24;;;;;;;;;;;;;;;;;;5013762;28;19955;-75
2023/03/08 10:54:53;;;;;;;;;;;;;;;;;;5034078;28;19920;-74
2023/03/08 10:57:20;;;;;;;;;;;;;;;;;;5016279;28;19928;-74
2023/03/08 10:59:45;;;;;;;;;;;;;;;;;;5020804;28;19921;-75
2023/03/08 11:02:11;;;;;;;;;;;;;;;;;;5037350;28;19931;-73
2023/03/08 11:04:36;;;;;;;;;;;;;;;;;;5034434;28;19927;-73
2023/03/08 11:07:02;;;;;;;;;;;;;;;;;;5031785;28;19923;-73
2023/03/08 11:09:27;;;;;;;;;;;;;;;;;;5029912;28;19920;-74
2023/03/08 11:11:52;;;;;;;;;;;;;;;;;;5019104;28;20287;-73
2023/03/08 11:14:20;;;;;;;;;;;;;;;;;;5027896;28;19962;-73
2023/03/08 11:16:46;;;;;;;;;;;;;;;;;;5029673;28;19993;-74
2023/03/08 11:19:11;;;;;;;;;;;;;;;;;;5010156;28;20026;-73
2023/03/08 11:21:36;;;;;;;;;;;;;;;;;;5010442;28;20064;-74
2023/03/08 11:24:02;;;;;;;;;;;;;;;;;;5007118;28;19916;-74
2023/03/08 11:26:30;;;;;;;;;;;;;;;;;;5026693;28;20075;-75
2023/03/08 11:28:55;;;;;;;;;;;;;;;;;;5028714;28;20459;-75
2023/03/08 11:31:20;;;;;;;;;;;;;;;;;;5028720;28;19928;-74
2023/03/08 11:33:48;;;;;;;;;;;;;;;;;;5005933;28;19917;-74
2023/03/08 11:36:13;;;;;;;;;;;;;;;;;;5030040;28;19920;-75
2023/03/08 11:38:38;;;;;;;;;;;;;;;;;;5027417;28;19921;-75
2023/03/08 11:41:04;;;;;;;;;;;;;;;;;;5027502;28;19928;-75
2023/03/08 11:43:29;;;;;;;;;;;;;;;;;;5025767;28;19920;-76
2023/03/08 11:45:56;;;;;;;;;;;;;;;;;;5008853;28;21682;-76
2023/03/08 11:48:22;;;;;;;;;;;;;;;;;;5028366;28;19921;-76
2023/03/08 11:50:47;;;;;;;;;;;;;;;;;;5024063;28;19927;-76
2023/03/08 11:53:12;;;;;;;;;;;;;;;;;;5025073;28;19921;-75
2023/03/08 11:55:38;;;;;;;;;;;;;;;;;;5026473;28;19924;-76
2023/03/08 11:58:03;;;;;;;;;;;;;;;;;;5028218;28;19917;-77
2023/03/08 12:00:28;;;;;;;;;;;;;;;;;;5026736;28;19928;-75
2023/03/08 12:02:54;;;;;;;;;;;;;;;;;;5026940;28;19978;-75
2023/03/08 12:05:19;;;;;;;;;;;;;;;;;;5027506;28;19921;-74
2023/03/08 12:07:44;;;;;;;;;;;;;;;;;;5026272;28;19923;-75
2023/03/08 12:10:10;;;;;;;;;;;;;;;;;;5030938;28;20366;-74
2023/03/08 12:12:35;;;;;;;;;;;;;;;;;;5035044;28;19916;-73
2023/03/08 12:15:00;;;;;;;;;;;;;;;;;;5010951;28;19913;-74
2023/03/08 12:17:26;;;;;;;;;;;;;;;;;;5008117;28;20572;-73
2023/03/08 12:19:51;;;;;;;;;;;;;;;;;;5028001;28;20268;-74
2023/03/08 12:22:19;;;;;;;;;;;;;;;;;;5029512;28;19928;-74
2023/03/08 12:24:45;;;;;;;;;;;;;;;;;;5027469;28;19921;-74
2023/03/08 12:27:10;;;;;;;;;;;;;;;;;;5011289;28;20257;-74
2023/03/08 12:29:35;;;;;;;;;;;;;;;;;;5030049;28;20082;-75
2023/03/08 12:32:01;;;;;;;;;;;;;;;;;;5036074;28;19913;-73
2023/03/08 12:34:26;;;;;;;;;;;;;;;;;;5036459;28;20242;-74
2023/03/08 12:36:52;;;;;;;;;;;;;;;;;;5032851;28;19913;-73
2023/03/08 12:39:17;;;;;;;;;;;;;;;;;;5012759;28;19913;-74
2023/03/08 12:41:42;;;;;;;;;;;;;;;;;;5032581;28;19917;-74
2023/03/08 12:44:08;;;;;;;;;;;;;;;;;;5033748;28;19991;-74
2023/03/08 12:46:33;;;;;;;;;;;;;;;;;;5015421;28;20521;-74
2023/03/08 12:48:58;;;;;;;;;;;;;;;;;;5036677;28;19923;-73
2023/03/08 12:51:26;;;;;;;;;;;;;;;;;;5038057;28;19928;-73
2023/03/08 12:53:51;;;;;;;;;;;;;;;;;;5038741;28;19927;-74
2023/03/08 12:56:17;;;;;;;;;;;;;;;;;;5019855;28;20241;-75
2023/03/08 12:58:42;;;;;;;;;;;;;;;;;;5039818;28;19912;-74
2023/03/08 13:01:07;;;;;;;;;;;;;;;;;;5041608;28;20471;-74
2023/03/08 13:03:33;;;;;;;;;;;;;;;;;;5031359;28;19946;-74
2023/03/08 13:05:58;;;;;;;;;;;;;;;;;;5049706;28;19916;-74
2023/03/08 13:08:23;;;;;;;;;;;;;;;;;;5047586;28;19976;-74
2023/03/08 13:10:49;;;;;;;;;;;;;;;;;;5042609;28;19917;-75
2023/03/08 13:13:14;;;;;;;;;;;;;;;;;;5047226;28;20154;-72
2023/03/08 13:15:40;;;;;;;;;;;;;;;;;;5049665;28;19927;-75
2023/03/08 13:18:07;;;;;;;;;;;;;;;;;;5039585;28;20521;-73
2023/03/08 13:20:32;;;;;;;;;;;;;;;;;;5049567;28;19942;-75
2023/03/08 13:22:57;;;;;;;;;;;;;;;;;;5031490;28;19917;-74
2023/03/08 13:25:27;;;;;;;;;;;;;;;;;;5043765;28;20534;-75
2023/03/08 13:27:52;;;;;;;;;;;;;;;;;;5044164;28;20131;-74
2023/03/08 13:30:18;;;;;;;;;;;;;;;;;;5051407;28;20288;-74
2023/03/08 13:32:43;;;;;;;;;;;;;;;;;;5048099;28;20272;-73
2023/03/08 13:35:11;;;;;;;;;;;;;;;;;;5044305;28;19921;-72
2023/03/08 13:37:37;;;;;;;;;;;;;;;;;;5056263;28;19991;-73
2023/03/08 13:40:06;;;;;;;;;;;;;;;;;;5054633;28;20074;-74
2023/03/08 13:42:35;;;;;;;;;;;;;;;;;;5049503;28;19917;-74
2023/03/08 13:45:25;;;;;;;;;;;;;;;;;;5041218;28;20136;-72
2023/03/08 13:47:53;;;;;;;;;;;;;;;;;;5043431;28;20007;-74
2023/03/08 13:50:21;;;;;;;;;;;;;;;;;;5054030;28;19920;-73
2023/03/08 13:52:46;;;;;;;;;;;;;;;;;;5055275;28;19912;-73
2023/03/08 13:55:14;;;;;;;;;;;;;;;;;;5033371;28;20367;-74
2023/03/08 13:57:46;;;;;;;;;;;;;;;;;;5056280;28;19931;-73
2023/03/08 14:00:14;;;;;;;;;;;;;;;;;;5035916;28;19913;-74
2023/03/08 14:02:42;;;;;;;;;;;;;;;;;;5051827;28;19933;-74
2023/03/08 14:05:10;;;;;;;;;;;;;;;;;;5042107;28;19913;-74
2023/03/08 14:07:49;;;;;;;;;;;;;;;;;;5062565;28;19909;-74
2023/03/08 14:10:26;;;;;;;;;;;;;;;;;;5033139;28;19913;-74
2023/03/08 14:12:59;;;;;;;;;;;;;;;;;;5037993;28;20057;-73
2023/03/08 14:15:27;;;;;;;;;;;;;;;;;;5062021;28;19913;-73
2023/03/08 14:17:52;;;;;;;;;;;;;;;;;;5029572;28;19913;-74
2023/03/08 14:20:20;;;;;;;;;;;;;;;;;;5045830;28;19959;-73
2023/03/08 14:22:48;;;;;;;;;;;;;;;;;;5052638;28;20005;-72
2023/03/08 14:25:16;;;;;;;;;;;;;;;;;;5029658;28;19937;-74
2023/03/08 14:27:57;;;;;;;;;;;;;;;;;;5029834;28;19913;-72
2023/03/08 14:30:33;;;;;;;;;;;;;;;;;;5026813;28;19928;-73
2023/03/08 14:32:58;;;;;;;;;;;;;;;;;;5036903;28;20283;-73
2023/03/08 14:35:23;;;;;;;;;;;;;;;;;;5037440;28;19913;-73
2023/03/08 14:37:55;;;;;;;;;;;;;;;;;;5059588;28;20564;-73
2023/03/08 14:40:21;;;;;;;;;;;;;;;;;;5039310;28;19920;-74
2023/03/08 14:42:46;;;;;;;;;;;;;;;;;;5041234;28;20301;-72
2023/03/08 14:45:11;;;;;;;;;;;;;;;;;;5048630;28;19928;-74
2023/03/08 14:47:37;;;;;;;;;;;;;;;;;;5042489;28;20376;-73
2023/03/08 14:50:02;;;;;;;;;;;;;;;;;;5040956;28;19929;-75
2023/03/08 14:52:27;;;;;;;;;;;;;;;;;;5043934;28;20396;-75
2023/03/08 14:54:53;;;;;;;;;;;;;;;;;;5038948;28;19932;-75
2023/03/08 14:57:18;;;;;;;;;;;;;;;;;;5039964;28;19920;-73
2023/03/08 14:59:43;;;;;;;;;;;;;;;;;;5043946;28;19920;-74
2023/03/08 15:02:09;;;;;;;;;;;;;;;;;;5039141;28;20443;-74
2023/03/08 15:04:34;;;;;;;;;;;;;;;;;;5040264;28;19912;-75
2023/03/08 15:06:59;;;;;;;;;;;;;;;;;;5043864;28;19921;-75
2023/03/08 15:09:25;;;;;;;;;;;;;;;;;;5017540;28;20299;-74
2023/03/08 15:11:51;;;;;;;;;;;;;;;;;;5038881;28;19924;-73
2023/03/08 15:14:16;;;;;;;;;;;;;;;;;;5014913;28;19991;-73
2023/03/08 15:16:41;;;;;;;;;;;;;;;;;;5029071;28;19957;-74
2023/03/08 15:19:07;;;;;;;;;;;;;;;;;;5040315;28;19924;-73
2023/03/08 15:21:32;;;;;;;;;;;;;;;;;;5012738;28;19921;-73
2023/03/08 15:23:58;;;;;;;;;;;;;;;;;;5022076;28;19920;-74
2023/03/08 15:26:23;;;;;;;;;;;;;;;;;;5036984;28;20160;-73
2023/03/08 15:37:58;;;;;;;;;;;;;;;;;;5001468;28;19971;-74
2023/03/08 15:40:24;;;;;;;;;;;;;;;;;;4998896;28;20175;-74
2023/03/08 15:42:53;;;;;;;;;;;;;;;;;;4992112;28;20187;-73
2023/03/08 15:45:27;;;;;;;;;;;;;;;;;;5007576;28;19917;-73
2023/03/08 16:00:58;;;;;;;;;;;;;;;;;;5005134;28;20035;-74
2023/03/08 16:03:43;;;;;;;;;;;;;;;;;;5001925;28;20292;-74
2023/03/08 16:06:10;;;;;;;;;;;;;;;;;;5006898;28;19922;-74
2023/03/08 16:11:52;;;;;;;;;;;;;;;;;;5006567;28;20051;-73
2023/03/08 16:14:17;;;;;;;;;;;;;;;;;;5003388;28;20009;-72
2023/03/08 16:16:45;;;;;;;;;;;;;;;;;;5001170;28;19917;-74
2023/03/08 16:19:10;;;;;;;;;;;;;;;;;;5003610;28;19951;-74
2023/03/08 16:24:52;;;;;;;;;;;;;;;;;;5001254;28;20292;-73
2023/03/08 16:27:33;;;;;;;;;;;;;;;;;;5002101;28;19913;-72
2023/03/08 16:33:14;;;;;;;;;;;;;;;;;;5000871;28;20033;-73
2023/03/08 16:35:45;;;;;;;;;;;;;;;;;;5005952;28;19940;-74
2023/03/08 16:41:23;;;;;;;;;;;;;;;;;;4996433;28;19928;-73
2023/03/08 16:43:48;;;;;;;;;;;;;;;;;;4997252;28;19925;-73
2023/03/08 16:46:13;;;;;;;;;;;;;;;;;;4969177;28;20564;-73
2023/03/08 16:48:39;;;;;;;;;;;;;;;;;;4983983;28;20037;-73
2023/03/08 16:51:04;;;;;;;;;;;;;;;;;;4994492;28;20423;-73
2023/03/08 16:53:29;;;;;;;;;;;;;;;;;;4993617;28;20016;-73
2023/03/08 16:56:04;;;;;;;;;;;;;;;;;;4981926;28;19925;-73
2023/03/08 16:58:39;;;;;;;;;;;;;;;;;;4994004;28;19929;-74
2023/03/08 17:04:22;;;;;;;;;;;;;;;;;;5001362;28;19958;-74
2023/03/08 17:06:47;;;;;;;;;;;;;;;;;;4984170;28;19917;-72
2023/03/08 17:09:12;;;;;;;;;;;;;;;;;;4981621;28;19925;-73
2023/03/08 17:11:38;;;;;;;;;;;;;;;;;;5000211;28;20451;-75
2023/03/08 17:14:03;;;;;;;;;;;;;;;;;;4984216;28;19913;-74
2023/03/08 17:16:34;;;;;;;;;;;;;;;;;;5000930;28;20888;-73
2023/03/08 17:25:32;;;;;;;;;;;;;;;;;;5001740;28;19924;-73
2023/03/08 17:27:58;;;;;;;;;;;;;;;;;;4998259;28;21501;-74
2023/03/08 17:33:08;;;;;;;;;;;;;;;;;;4993905;28;19966;-73
2023/03/08 17:35:33;;;;;;;;;;;;;;;;;;4995927;28;19913;-73
2023/03/08 17:40:46;;;;;;;;;;;;;;;;;;4998075;28;19954;-73
2023/03/08 17:43:11;;;;;;;;;;;;;;;;;;4999766;28;19926;-74
2023/03/08 17:45:44;;;;;;;;;;;;;;;;;;4990288;28;19922;-72
2023/03/08 17:51:04;;;;;;;;;;;;;;;;;;4994079;28;19924;-73
2023/03/08 17:53:47;;;;;;;;;;;;;;;;;;4981277;28;20419;-73
2023/03/08 17:56:13;;;;;;;;;;;;;;;;;;4993892;28;20364;-73